sensor_id;sensor_type;location;lat;lon;timestamp;pressure;altitude;pressure_sealevel;temperature;humidity
56241;BME280;42155;53.096;23.226;2023-02-11T00:01:41;100953.09;;;1.94;75.97
56241;BME280;42155;53.096;23.226;2023-02-11T00:03:42;100967.72;;;2.01;76.50
56241;BME280;42155;53.096;23.226;2023-02-11T00:05:42;100957.25;;;2.01;76.26
56241;BME280;42155;53.096;23.226;2023-02-11T00:07:42;100964.19;;;2.02;75.84
56241;BME280;42155;53.096;23.226;2023-02-11T00:09:43;100966.81;;;2.02;76.07
56241;BME280;42155;53.096;23.226;2023-02-11T00:11:43;100943.44;;;1.96;75.89
56241;BME280;42155;53.096;23.226;2023-02-11T00:13:44;100958.03;;;2.05;76.36
56241;BME280;42155;53.096;23.226;2023-02-11T00:15:45;100912.63;;;1.75;76.41
56241;BME280;42155;53.096;23.226;2023-02-11T00:17:45;100969.41;;;2.02;76.18
56241;BME280;42155;53.096;23.226;2023-02-11T00:19:49;100947.63;;;2.02;76.19
56241;BME280;42155;53.096;23.226;2023-02-11T00:21:50;100952.78;;;2.05;76.34
56241;BME280;42155;53.096;23.226;2023-02-11T00:23:50;100933.50;;;2.08;76.30
56241;BME280;42155;53.096;23.226;2023-02-11T00:25:51;100931.06;;;2.01;76.31
56241;BME280;42155;53.096;23.226;2023-02-11T00:27:51;100911.22;;;1.94;76.64
56241;BME280;42155;53.096;23.226;2023-02-11T00:29:52;100899.00;;;1.95;76.35
56241;BME280;42155;53.096;23.226;2023-02-11T00:31:52;100888.66;;;1.90;76.46
56241;BME280;42155;53.096;23.226;2023-02-11T00:33:53;100865.53;;;1.75;76.86
56241;BME280;42155;53.096;23.226;2023-02-11T00:35:54;100913.56;;;2.03;76.99
56241;BME280;42155;53.096;23.226;2023-02-11T00:37:55;100905.72;;;2.03;77.11
56241;BME280;42155;53.096;23.226;2023-02-11T00:39:55;100889.19;;;2.01;76.84
56241;BME280;42155;53.096;23.226;2023-02-11T00:41:56;100901.47;;;1.99;76.99
56241;BME280;42155;53.096;23.226;2023-02-11T00:43:56;100861.84;;;1.82;77.17
56241;BME280;42155;53.096;23.226;2023-02-11T00:45:56;100904.97;;;1.98;76.93
56241;BME280;42155;53.096;23.226;2023-02-11T00:47:57;100822.69;;;1.49;76.95
56241;BME280;42155;53.096;23.226;2023-02-11T00:49:57;100877.19;;;1.94;77.57
56241;BME280;42155;53.096;23.226;2023-02-11T00:51:57;100875.28;;;1.99;77.17
56241;BME280;42155;53.096;23.226;2023-02-11T00:53:58;100870.94;;;1.98;77.78
56241;BME280;42155;53.096;23.226;2023-02-11T00:55:58;100869.19;;;1.99;77.20
56241;BME280;42155;53.096;23.226;2023-02-11T00:57:59;100863.06;;;1.98;77.68
56241;BME280;42155;53.096;23.226;2023-02-11T00:59:59;100858.91;;;1.93;77.75
56241;BME280;42155;53.096;23.226;2023-02-11T01:01:59;100854.63;;;1.90;78.19
56241;BME280;42155;53.096;23.226;2023-02-11T01:04:00;100825.41;;;1.76;78.06
56241;BME280;42155;53.096;23.226;2023-02-11T01:06:00;100827.09;;;1.77;78.31
56241;BME280;42155;53.096;23.226;2023-02-11T01:08:01;100844.31;;;1.86;78.59
56241;BME280;42155;53.096;23.226;2023-02-11T01:10:01;100822.81;;;1.74;78.17
56241;BME280;42155;53.096;23.226;2023-02-11T01:12:01;100833.84;;;1.84;78.77
56241;BME280;42155;53.096;23.226;2023-02-11T01:14:02;100828.63;;;1.84;78.67
56241;BME280;42155;53.096;23.226;2023-02-11T01:16:05;100811.41;;;1.77;78.54
56241;BME280;42155;53.096;23.226;2023-02-11T01:18:06;100820.06;;;1.79;78.86
56241;BME280;42155;53.096;23.226;2023-02-11T01:20:13;100811.41;;;1.77;79.39
56241;BME280;42155;53.096;23.226;2023-02-11T01:22:13;100805.25;;;1.78;78.71
56241;BME280;42155;53.096;23.226;2023-02-11T01:24:14;100800.94;;;1.77;79.32
56241;BME280;42155;53.096;23.226;2023-02-11T01:26:14;100797.56;;;1.73;79.33
56241;BME280;42155;53.096;23.226;2023-02-11T01:28:17;100789.66;;;1.75;79.01
56241;BME280;42155;53.096;23.226;2023-02-11T01:30:18;100779.53;;;1.64;78.91
56241;BME280;42155;53.096;23.226;2023-02-11T01:32:18;100793.22;;;1.72;79.14
56241;BME280;42155;53.096;23.226;2023-02-11T01:34:18;100784.63;;;1.69;79.26
56241;BME280;42155;53.096;23.226;2023-02-11T01:36:19;100779.25;;;1.73;79.83
56241;BME280;42155;53.096;23.226;2023-02-11T01:38:22;100775.81;;;1.71;79.29
56241;BME280;42155;53.096;23.226;2023-02-11T01:40:22;100726.91;;;1.45;79.77
56241;BME280;42155;53.096;23.226;2023-02-11T01:42:23;100734.34;;;1.59;79.93
56241;BME280;42155;53.096;23.226;2023-02-11T01:44:36;100750.38;;;1.76;79.28
56241;BME280;42155;53.096;23.226;2023-02-11T01:46:37;100757.22;;;1.81;79.73
56241;BME280;42155;53.096;23.226;2023-02-11T01:48:41;100745.00;;;1.81;79.71
56241;BME280;42155;53.096;23.226;2023-02-11T01:50:45;100739.06;;;1.74;79.30
56241;BME280;42155;53.096;23.226;2023-02-11T01:52:47;100676.44;;;1.43;79.99
56241;BME280;42155;53.096;23.226;2023-02-11T01:54:51;100713.88;;;1.72;79.91
56241;BME280;42155;53.096;23.226;2023-02-11T01:56:55;100697.00;;;1.54;80.03
56241;BME280;42155;53.096;23.226;2023-02-11T01:59:02;100656.25;;;1.47;79.74
56241;BME280;42155;53.096;23.226;2023-02-11T02:01:06;100674.03;;;1.64;80.30
56241;BME280;42155;53.096;23.226;2023-02-11T02:03:16;100688.34;;;1.78;79.98
56241;BME280;42155;53.096;23.226;2023-02-11T02:05:56;100694.34;;;1.82;79.64
56241;BME280;42155;53.096;23.226;2023-02-11T02:08:18;100682.06;;;1.84;80.11
56241;BME280;42155;53.096;23.226;2023-02-11T02:10:23;100688.28;;;1.80;79.49
56241;BME280;42155;53.096;23.226;2023-02-11T02:12:24;100672.16;;;1.67;80.30
56241;BME280;42155;53.096;23.226;2023-02-11T02:14:25;100692.69;;;1.79;80.33
56241;BME280;42155;53.096;23.226;2023-02-11T02:16:30;100696.16;;;1.80;80.30
56241;BME280;42155;53.096;23.226;2023-02-11T02:26:13;100677.84;;;1.80;80.24
56241;BME280;42155;53.096;23.226;2023-02-11T02:33:12;100671.72;;;1.81;79.83
56241;BME280;42155;53.096;23.226;2023-02-11T02:37:20;100652.38;;;1.85;79.77
56241;BME280;42155;53.096;23.226;2023-02-11T02:39:26;100617.25;;;1.66;79.93
56241;BME280;42155;53.096;23.226;2023-02-11T02:41:30;100661.13;;;1.84;80.38
56241;BME280;42155;53.096;23.226;2023-02-11T02:43:32;100653.97;;;1.89;80.20
56241;BME280;42155;53.096;23.226;2023-02-11T02:45:33;100625.91;;;1.94;79.80
56241;BME280;42155;53.096;23.226;2023-02-11T02:47:33;100594.16;;;1.78;79.77
56241;BME280;42155;53.096;23.226;2023-02-11T02:49:34;100608.38;;;1.96;79.64
56241;BME280;42155;53.096;23.226;2023-02-11T02:52:02;100615.22;;;2.00;80.16
56241;BME280;42155;53.096;23.226;2023-02-11T02:56:47;100622.16;;;2.01;80.16
56241;BME280;42155;53.096;23.226;2023-02-11T03:01:07;100605.59;;;2.01;80.07
56241;BME280;42155;53.096;23.226;2023-02-11T03:10:10;100576.88;;;1.99;80.09
56241;BME280;42155;53.096;23.226;2023-02-11T03:12:13;100574.25;;;1.99;79.43
56241;BME280;42155;53.096;23.226;2023-02-11T03:14:16;100571.63;;;1.99;79.67
56241;BME280;42155;53.096;23.226;2023-02-11T03:16:25;100561.03;;;2.02;79.56
56241;BME280;42155;53.096;23.226;2023-02-11T03:18:27;100552.38;;;2.00;79.32
56241;BME280;42155;53.096;23.226;2023-02-11T03:20:29;100556.59;;;2.04;79.30
56241;BME280;42155;53.096;23.226;2023-02-11T03:22:39;100545.22;;;2.06;79.45
56241;BME280;42155;53.096;23.226;2023-02-11T03:24:40;100539.13;;;2.05;79.29
56241;BME280;42155;53.096;23.226;2023-02-11T03:27:06;100540.91;;;2.04;79.24
56241;BME280;42155;53.096;23.226;2023-02-11T03:31:28;100514.56;;;2.09;79.60
56241;BME280;42155;53.096;23.226;2023-02-11T03:35:57;100512.84;;;2.08;79.73
56241;BME280;42155;53.096;23.226;2023-02-11T03:38:23;100506.75;;;2.08;79.20
56241;BME280;42155;53.096;23.226;2023-02-11T03:40:24;100484.22;;;2.03;79.54
56241;BME280;42155;53.096;23.226;2023-02-11T03:42:30;100481.44;;;2.08;78.99
56241;BME280;42155;53.096;23.226;2023-02-11T03:44:36;100472.78;;;2.06;79.44
56241;BME280;42155;53.096;23.226;2023-02-11T03:46:41;100452.00;;;2.01;79.11
56241;BME280;42155;53.096;23.226;2023-02-11T03:48:48;100464.56;;;2.15;79.12
56241;BME280;42155;53.096;23.226;2023-02-11T03:50:50;100451.47;;;2.15;78.75
56241;BME280;42155;53.096;23.226;2023-02-11T03:52:52;100466.34;;;2.15;78.87
56241;BME280;42155;53.096;23.226;2023-02-11T03:54:56;100457.72;;;2.13;78.71
56241;BME280;42155;53.096;23.226;2023-02-11T03:56:59;100461.09;;;2.15;78.69
56241;BME280;42155;53.096;23.226;2023-02-11T03:59:00;100452.47;;;2.13;79.24
56241;BME280;42155;53.096;23.226;2023-02-11T04:01:00;100437.47;;;2.16;78.59
56241;BME280;42155;53.096;23.226;2023-02-11T04:03:01;100451.19;;;2.23;78.75
56241;BME280;42155;53.096;23.226;2023-02-11T04:05:05;100411.81;;;2.02;78.16
56241;BME280;42155;53.096;23.226;2023-02-11T04:07:05;100439.69;;;2.27;78.30
56241;BME280;42155;53.096;23.226;2023-02-11T04:09:06;100415.56;;;2.19;78.49
56241;BME280;42155;53.096;23.226;2023-02-11T04:11:06;100417.88;;;2.26;78.07
56241;BME280;42155;53.096;23.226;2023-02-11T04:13:07;100404.25;;;2.18;78.81
56241;BME280;42155;53.096;23.226;2023-02-11T04:15:07;100409.31;;;2.23;78.76
56241;BME280;42155;53.096;23.226;2023-02-11T04:17:08;100405.69;;;2.25;78.27
56241;BME280;42155;53.096;23.226;2023-02-11T04:19:08;100396.06;;;2.26;78.74
56241;BME280;42155;53.096;23.226;2023-02-11T04:21:09;100387.31;;;2.27;78.13
56241;BME280;42155;53.096;23.226;2023-02-11T04:23:09;100379.31;;;2.30;77.83
56241;BME280;42155;53.096;23.226;2023-02-11T04:25:09;100376.72;;;2.30;78.06
56241;BME280;42155;53.096;23.226;2023-02-11T04:27:10;100375.00;;;2.29;77.95
56241;BME280;42155;53.096;23.226;2023-02-11T04:29:10;100373.31;;;2.28;78.00
56241;BME280;42155;53.096;23.226;2023-02-11T04:31:11;100355.03;;;2.26;77.81
56241;BME280;42155;53.096;23.226;2023-02-11T04:33:11;100347.50;;;2.19;77.97
56241;BME280;42155;53.096;23.226;2023-02-11T04:35:11;100343.84;;;2.23;78.06
56241;BME280;42155;53.096;23.226;2023-02-11T04:37:12;100303.47;;;2.07;78.04
56241;BME280;42155;53.096;23.226;2023-02-11T04:39:12;100328.78;;;2.28;78.15
56241;BME280;42155;53.096;23.226;2023-02-11T04:41:12;100334.94;;;2.27;77.66
56241;BME280;42155;53.096;23.226;2023-02-11T04:43:13;100341.09;;;2.26;78.28
56241;BME280;42155;53.096;23.226;2023-02-11T04:45:13;100340.66;;;2.15;77.43
56241;BME280;42155;53.096;23.226;2023-02-11T04:47:14;100282.28;;;1.91;77.69
56241;BME280;42155;53.096;23.226;2023-02-11T04:49:16;100336.84;;;2.23;77.48
56241;BME280;42155;53.096;23.226;2023-02-11T04:51:16;100345.28;;;2.30;77.99
56241;BME280;42155;53.096;23.226;2023-02-11T04:53:17;100337.25;;;2.35;77.72
56241;BME280;42155;53.096;23.226;2023-02-11T04:55:17;100325.81;;;2.37;77.16
56241;BME280;42155;53.096;23.226;2023-02-11T04:57:17;100329.16;;;2.41;77.16
56241;BME280;42155;53.096;23.226;2023-02-11T04:59:18;100325.66;;;2.40;77.76
56241;BME280;42155;53.096;23.226;2023-02-11T05:01:18;100318.88;;;2.36;77.76
56241;BME280;42155;53.096;23.226;2023-02-11T05:03:19;100320.41;;;2.40;77.08
56241;BME280;42155;53.096;23.226;2023-02-11T05:05:19;100319.53;;;2.41;77.73
56241;BME280;42155;53.096;23.226;2023-02-11T05:07:19;100290.09;;;2.35;77.28
56241;BME280;42155;53.096;23.226;2023-02-11T05:09:20;100310.69;;;2.44;77.10
56241;BME280;42155;53.096;23.226;2023-02-11T05:11:22;100297.91;;;2.36;76.83
56241;BME280;42155;53.096;23.226;2023-02-11T05:13:23;100296.91;;;2.39;76.90
56241;BME280;42155;53.096;23.226;2023-02-11T05:15:23;100286.91;;;2.28;77.38
56241;BME280;42155;53.096;23.226;2023-02-11T05:17:24;100292.88;;;2.32;76.79
56241;BME280;42155;53.096;23.226;2023-02-11T05:19:24;100288.53;;;2.30;76.75
56241;BME280;42155;53.096;23.226;2023-02-11T05:21:24;100279.97;;;2.27;76.99
56241;BME280;42155;53.096;23.226;2023-02-11T05:23:25;100286.56;;;2.36;77.52
56241;BME280;42155;53.096;23.226;2023-02-11T05:25:25;100259.06;;;2.25;76.83
56241;BME280;42155;53.096;23.226;2023-02-11T05:27:26;100276.97;;;2.36;76.73
56241;BME280;42155;53.096;23.226;2023-02-11T05:29:26;100277.81;;;2.37;77.07
56241;BME280;42155;53.096;23.226;2023-02-11T05:31:27;100271.56;;;2.39;76.58
56241;BME280;42155;53.096;23.226;2023-02-11T05:33:27;100259.31;;;2.40;77.05
56241;BME280;42155;53.096;23.226;2023-02-11T05:35:28;100271.34;;;2.45;76.26
56241;BME280;42155;53.096;23.226;2023-02-11T05:37:28;100270.59;;;2.42;76.80
56241;BME280;42155;53.096;23.226;2023-02-11T05:39:28;100260.91;;;2.44;76.60
56241;BME280;42155;53.096;23.226;2023-02-11T05:41:28;100250.38;;;2.45;76.17
56241;BME280;42155;53.096;23.226;2023-02-11T05:43:29;100266.22;;;2.42;76.46
56241;BME280;42155;53.096;23.226;2023-02-11T05:45:29;100252.31;;;2.40;76.03
56241;BME280;42155;53.096;23.226;2023-02-11T05:47:30;100241.19;;;2.35;76.76
56241;BME280;42155;53.096;23.226;2023-02-11T05:49:30;100249.88;;;2.36;76.25
56241;BME280;42155;53.096;23.226;2023-02-11T05:51:30;100238.72;;;2.32;76.75
56241;BME280;42155;53.096;23.226;2023-02-11T05:53:31;100191.16;;;2.00;76.41
56241;BME280;42155;53.096;23.226;2023-02-11T05:55:31;100230.06;;;2.30;76.19
56241;BME280;42155;53.096;23.226;2023-02-11T05:57:32;100187.38;;;2.08;76.24
56241;BME280;42155;53.096;23.226;2023-02-11T05:59:33;100232.16;;;2.22;76.95
56241;BME280;42155;53.096;23.226;2023-02-11T06:01:33;100241.38;;;2.30;76.20
56241;BME280;42155;53.096;23.226;2023-02-11T06:03:34;100199.59;;;2.07;76.58
56241;BME280;42155;53.096;23.226;2023-02-11T06:05:34;100233.47;;;2.32;75.97
56241;BME280;42155;53.096;23.226;2023-02-11T06:07:34;100218.00;;;2.26;76.18
56241;BME280;42155;53.096;23.226;2023-02-11T06:09:37;100192.59;;;2.08;76.53
56241;BME280;42155;53.096;23.226;2023-02-11T06:11:37;100216.03;;;2.31;76.73
56241;BME280;42155;53.096;23.226;2023-02-11T06:13:38;100161.44;;;2.01;76.46
56241;BME280;42155;53.096;23.226;2023-02-11T06:15:38;100211.69;;;2.32;76.21
56241;BME280;42155;53.096;23.226;2023-02-11T06:17:39;100211.69;;;2.32;76.10
56241;BME280;42155;53.096;23.226;2023-02-11T06:19:39;100195.50;;;2.22;76.08
56241;BME280;42155;53.096;23.226;2023-02-11T06:21:39;100197.97;;;2.25;76.33
56241;BME280;42155;53.096;23.226;2023-02-11T06:23:40;100207.41;;;2.29;76.26
56241;BME280;42155;53.096;23.226;2023-02-11T06:25:40;100118.91;;;1.76;75.90
56241;BME280;42155;53.096;23.226;2023-02-11T06:27:40;100188.94;;;2.12;76.50
56241;BME280;42155;53.096;23.226;2023-02-11T06:29:40;100211.69;;;2.32;75.76
56241;BME280;42155;53.096;23.226;2023-02-11T06:31:41;100213.38;;;2.33;76.28
56241;BME280;42155;53.096;23.226;2023-02-11T06:33:41;100169.56;;;2.16;75.97
56241;BME280;42155;53.096;23.226;2023-02-11T06:35:42;100201.13;;;2.33;76.09
56241;BME280;42155;53.096;23.226;2023-02-11T06:37:42;100196.66;;;2.35;75.61
56241;BME280;42155;53.096;23.226;2023-02-11T06:39:43;100186.34;;;2.32;75.66
56241;BME280;42155;53.096;23.226;2023-02-11T06:41:43;100200.94;;;2.38;75.65
56241;BME280;42155;53.096;23.226;2023-02-11T06:43:44;100193.84;;;2.40;75.21
56241;BME280;42155;53.096;23.226;2023-02-11T06:45:51;100185.94;;;2.41;75.19
56241;BME280;42155;53.096;23.226;2023-02-11T06:47:51;100163.09;;;2.24;75.39
56241;BME280;42155;53.096;23.226;2023-02-11T06:49:52;100175.59;;;2.38;75.62
56241;BME280;42155;53.096;23.226;2023-02-11T06:51:52;100159.34;;;2.30;74.78
56241;BME280;42155;53.096;23.226;2023-02-11T06:53:53;100173.63;;;2.43;74.74
56241;BME280;42155;53.096;23.226;2023-02-11T06:55:53;100136.19;;;2.21;75.22
56241;BME280;42155;53.096;23.226;2023-02-11T06:57:53;100152.53;;;2.46;75.21
56241;BME280;42155;53.096;23.226;2023-02-11T06:59:54;100155.16;;;2.46;75.02
56241;BME280;42155;53.096;23.226;2023-02-11T07:01:54;100132.56;;;2.44;74.62
56241;BME280;42155;53.096;23.226;2023-02-11T07:03:54;100136.94;;;2.43;75.13
56241;BME280;42155;53.096;23.226;2023-02-11T07:05:55;100124.97;;;2.38;74.78
56241;BME280;42155;53.096;23.226;2023-02-11T07:07:56;100130.75;;;2.46;74.76
56241;BME280;42155;53.096;23.226;2023-02-11T07:09:56;100112.22;;;2.30;75.31
56241;BME280;42155;53.096;23.226;2023-02-11T07:11:57;100046.13;;;1.86;75.11
56241;BME280;42155;53.096;23.226;2023-02-11T07:14:03;100141.53;;;2.38;74.98
56241;BME280;42155;53.096;23.226;2023-02-11T07:16:08;100124.91;;;2.39;75.60
56241;BME280;42155;53.096;23.226;2023-02-11T07:18:09;100143.88;;;2.44;75.63
56241;BME280;42155;53.096;23.226;2023-02-11T07:20:09;100135.25;;;2.42;75.01
56241;BME280;42155;53.096;23.226;2023-02-11T07:22:10;100141.13;;;2.47;74.88
56241;BME280;42155;53.096;23.226;2023-02-11T07:24:11;100136.03;;;2.44;75.36
56241;BME280;42155;53.096;23.226;2023-02-11T07:26:14;100124.91;;;2.39;75.33
56241;BME280;42155;53.096;23.226;2023-02-11T07:28:15;100143.88;;;2.44;75.83
56241;BME280;42155;53.096;23.226;2023-02-11T07:30:15;100123.41;;;2.34;75.94
56241;BME280;42155;53.096;23.226;2023-02-11T07:32:15;100130.16;;;2.39;75.60
56241;BME280;42155;53.096;23.226;2023-02-11T07:34:16;100124.19;;;2.36;76.04
56241;BME280;42155;53.096;23.226;2023-02-11T07:36:16;100119.09;;;2.33;76.27
56241;BME280;42155;53.096;23.226;2023-02-11T07:38:16;100116.97;;;2.22;76.81
56241;BME280;42155;53.096;23.226;2023-02-11T07:40:17;100111.84;;;2.19;76.79
56241;BME280;42155;53.096;23.226;2023-02-11T07:42:17;100118.53;;;2.06;77.24
56241;BME280;42155;53.096;23.226;2023-02-11T07:44:17;100037.69;;;1.59;78.28
56241;BME280;42155;53.096;23.226;2023-02-11T07:46:21;100116.19;;;1.99;77.94
56241;BME280;42155;53.096;23.226;2023-02-11T07:48:22;100118.72;;;2.01;78.12
56241;BME280;42155;53.096;23.226;2023-02-11T07:50:22;100117.03;;;2.00;78.66
56241;BME280;42155;53.096;23.226;2023-02-11T07:52:22;100137.16;;;1.98;78.98
56241;BME280;42155;53.096;23.226;2023-02-11T07:54:23;100127.53;;;1.98;78.68
56241;BME280;42155;53.096;23.226;2023-02-11T07:56:23;100081.69;;;1.69;79.01
56241;BME280;42155;53.096;23.226;2023-02-11T07:58:24;100096.59;;;1.88;78.92
56241;BME280;42155;53.096;23.226;2023-02-11T08:00:24;100122.72;;;2.10;78.85
56241;BME280;42155;53.096;23.226;2023-02-11T08:02:25;100107.28;;;2.03;78.61
56241;BME280;42155;53.096;23.226;2023-02-11T08:04:25;100114.94;;;2.08;78.78
56241;BME280;42155;53.096;23.226;2023-02-11T08:06:28;100057.94;;;1.74;79.03
56241;BME280;42155;53.096;23.226;2023-02-11T08:08:28;100113.16;;;2.09;78.58
56241;BME280;42155;53.096;23.226;2023-02-11T08:10:29;100101.66;;;1.92;78.57
56241;BME280;42155;53.096;23.226;2023-02-11T08:12:29;100111.00;;;1.98;79.11
56241;BME280;42155;53.096;23.226;2023-02-11T08:14:29;100100.88;;;1.90;79.29
56241;BME280;42155;53.096;23.226;2023-02-11T08:16:33;100127.63;;;1.97;79.42
56241;BME280;42155;53.096;23.226;2023-02-11T08:18:34;100123.22;;;1.97;79.26
56241;BME280;42155;53.096;23.226;2023-02-11T08:20:35;100110.50;;;1.90;79.65
56241;BME280;42155;53.096;23.226;2023-02-11T08:22:35;100123.22;;;1.97;79.33
56241;BME280;42155;53.096;23.226;2023-02-11T08:24:36;100100.59;;;1.96;79.76
56241;BME280;42155;53.096;23.226;2023-02-11T08:26:36;100101.31;;;2.00;79.52
56241;BME280;42155;53.096;23.226;2023-02-11T08:28:38;100087.41;;;1.99;79.69
56241;BME280;42155;53.096;23.226;2023-02-11T08:30:39;100060.03;;;1.86;80.11
56241;BME280;42155;53.096;23.226;2023-02-11T08:32:39;100065.53;;;2.00;80.26
56241;BME280;42155;53.096;23.226;2023-02-11T08:34:40;100069.06;;;1.99;79.69
56241;BME280;42155;53.096;23.226;2023-02-11T08:36:41;100071.88;;;1.95;79.82
56241;BME280;42155;53.096;23.226;2023-02-11T08:38:42;100061.41;;;1.95;80.03
56241;BME280;42155;53.096;23.226;2023-02-11T08:40:42;100057.88;;;1.96;79.92
56241;BME280;42155;53.096;23.226;2023-02-11T08:42:42;100053.78;;;1.90;79.83
56241;BME280;42155;53.096;23.226;2023-02-11T08:44:43;100047.41;;;1.96;80.58
56241;BME280;42155;53.096;23.226;2023-02-11T08:46:43;100056.38;;;1.90;80.10
56241;BME280;42155;53.096;23.226;2023-02-11T08:48:44;100025.97;;;1.67;80.07
56241;BME280;42155;53.096;23.226;2023-02-11T08:50:45;100061.75;;;1.87;80.90
56241;BME280;42155;53.096;23.226;2023-02-11T08:52:45;100071.03;;;1.94;80.60
56241;BME280;42155;53.096;23.226;2023-02-11T08:54:45;100053.63;;;1.93;81.17
56241;BME280;42155;53.096;23.226;2023-02-11T08:56:49;100059.28;;;2.03;80.75
56241;BME280;42155;53.096;23.226;2023-02-11T08:58:51;100020.50;;;1.92;80.54
56241;BME280;42155;53.096;23.226;2023-02-11T09:00:52;100038.94;;;2.10;80.76
56241;BME280;42155;53.096;23.226;2023-02-11T09:02:52;100015.88;;;1.99;80.93
56241;BME280;42155;53.096;23.226;2023-02-11T09:04:52;100022.41;;;2.09;80.32
56241;BME280;42155;53.096;23.226;2023-02-11T09:06:53;99985.13;;;1.84;80.63
56241;BME280;42155;53.096;23.226;2023-02-11T09:08:55;100023.56;;;2.02;80.97
56241;BME280;42155;53.096;23.226;2023-02-11T09:10:56;99994.63;;;1.86;81.11
56241;BME280;42155;53.096;23.226;2023-02-11T09:12:56;100035.13;;;2.17;81.29
56241;BME280;42155;53.096;23.226;2023-02-11T09:14:57;100027.06;;;2.21;81.08
56241;BME280;42155;53.096;23.226;2023-02-11T09:16:57;100036.69;;;2.21;80.56
56241;BME280;42155;53.096;23.226;2023-02-11T09:18:59;100014.19;;;2.17;80.91
56241;BME280;42155;53.096;23.226;2023-02-11T09:21:04;100020.00;;;2.23;81.21
56241;BME280;42155;53.096;23.226;2023-02-11T09:23:04;99920.50;;;1.67;80.69
56241;BME280;42155;53.096;23.226;2023-02-11T09:25:05;99991.97;;;2.07;80.76
56241;BME280;42155;53.096;23.226;2023-02-11T09:27:05;100018.38;;;2.21;81.30
56241;BME280;42155;53.096;23.226;2023-02-11T09:29:05;99976.94;;;1.91;81.08
56241;BME280;42155;53.096;23.226;2023-02-11T09:31:07;99997.84;;;2.12;81.46
56241;BME280;42155;53.096;23.226;2023-02-11T09:33:08;99953.94;;;1.79;81.57
56241;BME280;42155;53.096;23.226;2023-02-11T09:35:08;99960.84;;;2.00;81.02
56241;BME280;42155;53.096;23.226;2023-02-11T09:37:08;99994.78;;;2.21;81.27
56241;BME280;42155;53.096;23.226;2023-02-11T09:39:15;99980.81;;;2.22;81.64
56241;BME280;42155;53.096;23.226;2023-02-11T09:43:42;99963.03;;;2.10;81.81
56241;BME280;42155;53.096;23.226;2023-02-11T09:45:43;99977.81;;;2.11;81.53
56241;BME280;42155;53.096;23.226;2023-02-11T09:47:54;99993.53;;;2.11;81.38
56241;BME280;42155;53.096;23.226;2023-02-11T09:50:00;99975.41;;;2.06;82.26
56241;BME280;42155;53.096;23.226;2023-02-11T09:52:06;99966.41;;;2.12;81.53
56241;BME280;42155;53.096;23.226;2023-02-11T09:54:19;99967.63;;;2.04;81.99
56241;BME280;42155;53.096;23.226;2023-02-11T09:56:23;99968.91;;;2.15;81.75
56241;BME280;42155;53.096;23.226;2023-02-11T09:58:39;99967.22;;;2.14;81.75
56241;BME280;42155;53.096;23.226;2023-02-11T10:00:47;99968.63;;;2.21;81.50
56241;BME280;42155;53.096;23.226;2023-02-11T10:05:28;99963.13;;;2.27;81.64
56241;BME280;42155;53.096;23.226;2023-02-11T10:07:34;99958.44;;;2.34;81.58
56241;BME280;42155;53.096;23.226;2023-02-11T10:14:12;99969.31;;;2.43;81.55
56241;BME280;42155;53.096;23.226;2023-02-11T10:20:55;99946.38;;;2.48;81.62
56241;BME280;42155;53.096;23.226;2023-02-11T10:23:16;99936.78;;;2.30;81.15
56241;BME280;42155;53.096;23.226;2023-02-11T10:27:30;99941.75;;;2.36;81.29
56241;BME280;42155;53.096;23.226;2023-02-11T10:29:44;99925.03;;;2.39;81.40
56241;BME280;42155;53.096;23.226;2023-02-11T10:31:46;99920.78;;;2.36;81.35
56241;BME280;42155;53.096;23.226;2023-02-11T10:33:55;99915.56;;;2.36;81.87
56241;BME280;42155;53.096;23.226;2023-02-11T10:35:58;99911.16;;;2.37;82.13
56241;BME280;42155;53.096;23.226;2023-02-11T10:37:59;99910.16;;;2.39;81.65
56241;BME280;42155;53.096;23.226;2023-02-11T10:39:59;99900.59;;;2.38;81.91
56241;BME280;42155;53.096;23.226;2023-02-11T10:42:05;99898.69;;;2.42;81.55
56241;BME280;42155;53.096;23.226;2023-02-11T10:46:23;99888.63;;;2.51;82.02
56241;BME280;42155;53.096;23.226;2023-02-11T10:50:38;99890.31;;;2.52;81.93
56241;BME280;42155;53.096;23.226;2023-02-11T10:52:38;99881.81;;;2.47;81.36
56241;BME280;42155;53.096;23.226;2023-02-11T10:54:38;99894.56;;;2.55;81.43
56241;BME280;42155;53.096;23.226;2023-02-11T10:56:44;99893.72;;;2.54;81.74
56241;BME280;42155;53.096;23.226;2023-02-11T10:59:04;99878.75;;;2.57;82.08
56241;BME280;42155;53.096;23.226;2023-02-11T11:01:04;99865.72;;;2.38;81.36
56241;BME280;42155;53.096;23.226;2023-02-11T11:03:23;99898.03;;;2.55;81.96
56241;BME280;42155;53.096;23.226;2023-02-11T11:05:34;99890.16;;;2.55;82.02
56241;BME280;42155;53.096;23.226;2023-02-11T11:07:35;99846.59;;;2.36;81.76
56241;BME280;42155;53.096;23.226;2023-02-11T11:09:49;99883.91;;;2.58;82.47
56241;BME280;42155;53.096;23.226;2023-02-11T11:11:51;99906.59;;;2.59;81.70
56241;BME280;42155;53.096;23.226;2023-02-11T11:18:17;99905.72;;;2.59;81.82
56241;BME280;42155;53.096;23.226;2023-02-11T11:20:22;99909.00;;;2.64;82.09
56241;BME280;42155;53.096;23.226;2023-02-11T11:22:23;99907.03;;;2.67;81.75
56241;BME280;42155;53.096;23.226;2023-02-11T11:26:41;99867.31;;;2.40;82.00
56241;BME280;42155;53.096;23.226;2023-02-11T11:30:46;99904.19;;;2.54;81.66
56241;BME280;42155;53.096;23.226;2023-02-11T11:32:46;99912.59;;;2.61;82.48
56241;BME280;42155;53.096;23.226;2023-02-11T11:34:52;99897.25;;;2.53;81.93
56241;BME280;42155;53.096;23.226;2023-02-11T11:36:55;99907.03;;;2.67;82.42
56241;BME280;42155;53.096;23.226;2023-02-11T11:39:00;99903.44;;;2.70;81.92
56241;BME280;42155;53.096;23.226;2023-02-11T11:41:22;99897.50;;;2.66;81.99
56241;BME280;42155;53.096;23.226;2023-02-11T11:43:23;99830.47;;;2.26;82.47